Ek-star — LAMT5 — position and weather

sailwx.info

Track history (hours):
 
Tides and Currents Weather Stations Pressure Air Temp Water Temp Dewpoint Dewpoint Depression Visibility Wind Speed Wind Dir Waves Ship Positions

Ek-star

Last reported at 2017-May-28 17:54 UTC. Time now 2017-May-28 18:18 UTC.
Position N 52°54' E 003°59'.

Length 135 m; draft 8.1 m.

Type: Ship (hazmat cat A). MMSI: 257433000.

Date/timePositionNaut miles runAvg speedWind from/ knotsBaromVisibWave heightAir tempDewpointWater temp
2017-May-28 17:54N 52°54' E 003°59'711.7
2017-May-28 17:19N 52°60' E 004°05'22312.5
2017-May-27 23:28N 56°16' E 007°08'912.0
2017-May-27 22:42N 56°24' E 007°17'512.1
2017-May-27 22:19N 56°28' E 007°21'412.1
2017-May-27 21:59N 56°31' E 007°25'611.9
2017-May-27 21:30N 56°36' E 007°30'612.0
2017-May-27 20:59N 56°42' E 007°36'611.9
2017-May-27 20:30N 56°46' E 007°41'3212.1
2017-May-27 17:54N 57°12' E 008°16'612.5
2017-May-27 17:26N 57°16' E 008°23'4912.0
2017-May-27 13:23N 57°45' E 009°37'511.7
2017-May-27 12:56N 57°48' E 009°45'511.4
2017-May-27 12:30N 57°50' E 009°53'611.4
2017-May-27 11:59N 57°53' E 010°03'611.5
2017-May-27 11:26N 57°56' E 010°13'511.4
2017-May-27 10:59N 57°59' E 010°21'611.4
2017-May-27 10:29N 58°02' E 010°30'611.5
2017-May-27 09:59N 58°05' E 010°40'611.8
2017-May-27 09:30N 58°08' E 010°49'611.8
2017-May-27 08:59N 58°11' E 010°59'611.8
2017-May-27 08:27N 58°14' E 011°09'510.7
2017-May-27 08:00N 58°17' E 011°17'611.6
2017-May-27 07:30N 58°21' E 011°24'1 0.0
2017-May-25 11:04N 58°21' E 011°26'0 1.1
2017-May-25 11:00N 58°21' E 011°26'2 4.7
2017-May-25 10:30N 58°20' E 011°23'713.5
2017-May-25 10:00N 58°15' E 011°13'3 5.8
2017-May-25 09:30N 58°13' E 011°10'1 2.5
2017-May-25 08:59N 58°12' E 011°10'0 0.8
2017-May-25 08:30N 58°12' E 011°11'0 0.2
2017-May-25 08:00N 58°12' E 011°11'0 0.2
2017-May-25 07:30N 58°12' E 011°11'2 4.8
2017-May-25 07:00N 58°09' E 011°12'713.9
2017-May-25 06:30N 58°02' E 011°14'612.7
2017-May-25 06:00N 57°56' E 011°17'612.0
2017-May-25 05:30N 57°50' E 011°20'611.4
2017-May-25 04:59N 57°44' E 011°21'611.4
2017-May-25 04:30N 57°39' E 011°22'610.9
2017-May-25 03:59N 57°33' E 011°25'510.7
2017-May-25 03:30N 57°29' E 011°28'510.8
2017-May-25 03:00N 57°24' E 011°31'611.4
2017-May-25 02:30N 57°18' E 011°34'612.2
2017-May-25 01:59N 57°12' E 011°37'812.5
2017-May-25 01:19N 57°04' E 011°42'512.3
2017-May-25 00:56N 56°60' E 011°45'712.0
2017-May-25 00:21N 56°53' E 011°50'4511.4
2017-May-24 20:26N 56°12' E 012°21'512.0
2017-May-24 20:00N 56°10' E 012°29'612.5
2017-May-24 19:30N 56°05' E 012°37'611.5
2017-May-24 19:00N 55°60' E 012°41'611.8
2017-May-24 18:31N 55°54' E 012°45'612.2
2017-May-24 18:00N 55°48' E 012°47'612.9
2017-May-24 17:30N 55°43' E 012°53'510.4
2017-May-24 17:00N 55°38' E 012°56'611.5
2017-May-24 16:30N 55°34' E 012°48'510.2
2017-May-24 16:00N 55°29' E 012°43'510.1
2017-May-24 15:30N 55°25' E 012°42'612.0
2017-May-24 15:00N 55°18' E 012°41'612.6
2017-May-24 14:30N 55°16' E 012°51'2612.6
2017-May-24 12:25N 55°14' E 013°37'612.6
2017-May-24 11:57N 55°14' E 013°47'612.6
2017-May-24 11:30N 55°14' E 013°57'612.6
2017-May-24 11:00N 55°14' E 014°08'611.7
2017-May-24 10:29N 55°15' E 014°19'613.0
2017-May-24 10:00N 55°20' E 014°25'712.7
2017-May-24 09:29N 55°25' E 014°32'612.5
2017-May-24 09:00N 55°29' E 014°42'612.5
2017-May-24 08:30N 55°32' E 014°51'612.6
2017-May-24 08:00N 55°35' E 015°01'612.8
2017-May-24 07:30N 55°38' E 015°10'612.9
2017-May-24 07:00N 55°41' E 015°20'713.4
2017-May-24 06:30N 55°45' E 015°31'714.1
2017-May-24 06:00N 55°48' E 015°41'713.2
2017-May-24 05:30N 55°52' E 015°51'713.1
2017-May-24 05:00N 55°55' E 016°02'613.0
2017-May-24 04:30N 55°58' E 016°12'713.0
2017-May-24 04:00N 56°01' E 016°22'612.8
2017-May-24 03:30N 56°04' E 016°32'612.7
2017-May-24 03:00N 56°08' E 016°41'612.3
2017-May-24 02:30N 56°13' E 016°47'612.7
2017-May-24 02:00N 56°19' E 016°51'612.6
2017-May-24 01:30N 56°25' E 016°55'612.7
2017-May-24 01:00N 56°31' E 016°59'612.7
2017-May-24 00:30N 56°37' E 017°04'712.6
2017-May-23 23:59N 56°43' E 017°08'612.6
2017-May-23 23:30N 56°49' E 017°12'612.5
2017-May-23 23:00N 56°54' E 017°16'612.7
2017-May-23 22:30N 57°00' E 017°20'712.8
2017-May-23 21:59N 57°07' E 017°24'13712.5
2017-May-23 11:03N 59°12' E 019°08'112.7
2017-May-23 11:00N 59°13' E 019°07'47 1.1
2017-May-21 15:14N 59°59' E 019°20'312.6
2017-May-21 15:00N 60°01' E 019°16'712.8
2017-May-21 14:29N 60°06' E 019°08'1212.2
2017-May-21 13:30N 60°18' E 019°00'612.7
2017-May-21 13:00N 60°24' E 018°60'811.6
2017-May-21 12:19N 60°31' E 018°53'412.8
2017-May-21 12:00N 60°33' E 018°46'7 0.2
2017-May-20 04:40N 60°38' E 018°35'311.8
2017-May-20 04:23N 60°36' E 018°41'611.9
2017-May-20 03:51N 60°33' E 018°52'411.9
2017-May-20 03:28N 60°30' E 018°59'711.1
2017-May-20 02:51N 60°24' E 019°01'411.7
2017-May-20 02:29N 60°19' E 019°00'611.6
2017-May-20 02:00N 60°14' E 019°03'611.7
2017-May-20 01:30N 60°09' E 019°10'612.0
2017-May-20 01:00N 60°04' E 019°17'612.1
2017-May-20 00:30N 59°60' E 019°25'1312.3
2017-May-19 23:28N 59°50' E 019°41'20811.6
2017-May-19 05:33N 56°38' E 017°12'112.5
2017-May-19 05:29N 56°37' E 017°11'912.5
2017-May-19 04:49N 56°29' E 017°06'412.5
2017-May-19 04:29N 56°25' E 017°03'612.5
2017-May-19 04:00N 56°19' E 016°59'612.5
2017-May-19 03:30N 56°14' E 016°55'612.6
2017-May-19 03:00N 56°08' E 016°51'612.0
2017-May-19 02:30N 56°03' E 016°44'612.5
2017-May-19 02:00N 55°60' E 016°35'612.4
2017-May-19 01:30N 55°57' E 016°25'612.5
2017-May-19 01:00N 55°54' E 016°16'612.2
2017-May-19 00:31N 55°51' E 016°06'612.1
2017-May-19 00:00N 55°48' E 015°57'612.1
2017-May-18 23:30N 55°45' E 015°47'612.1
2017-May-18 23:00N 55°42' E 015°38'612.1
2017-May-18 22:30N 55°39' E 015°29'612.2
2017-May-18 22:01N 55°36' E 015°19'612.3
2017-May-18 21:31N 55°33' E 015°09'612.2
2017-May-18 20:59N 55°30' E 014°59'612.1
2017-May-18 20:29N 55°27' E 014°50'611.9
2017-May-18 19:59N 55°24' E 014°41'612.0
2017-May-18 19:31N 55°20' E 014°34'612.1
2017-May-18 19:00N 55°15' E 014°27'612.2
2017-May-18 18:30N 55°10' E 014°21'612.5
2017-May-18 17:59N 55°05' E 014°13'  
Track history (hours):
 
Tides and Currents Weather Stations Pressure Air Temp Water Temp Dewpoint Dewpoint Depression Visibility Wind Speed Wind Dir Waves Ship Positions

Ek-star

Last reported at 2017-May-28 17:54 UTC. Time now 2017-May-28 18:18 UTC.
Position N 52°54' E 003°59'.

Length 135 m; draft 8.1 m.

Type: Ship (hazmat cat A). MMSI: 257433000.

Date/timePositionNaut miles runAvg speedWind from/ knotsBaromVisibWave heightAir tempDewpointWater temp
2017-May-28 17:54N 52°54' E 003°59'711.7
2017-May-28 17:19N 52°60' E 004°05'22312.5
2017-May-27 23:28N 56°16' E 007°08'912.0
2017-May-27 22:42N 56°24' E 007°17'512.1
2017-May-27 22:19N 56°28' E 007°21'412.1
2017-May-27 21:59N 56°31' E 007°25'611.9
2017-May-27 21:30N 56°36' E 007°30'612.0
2017-May-27 20:59N 56°42' E 007°36'611.9
2017-May-27 20:30N 56°46' E 007°41'3212.1
2017-May-27 17:54N 57°12' E 008°16'612.5
2017-May-27 17:26N 57°16' E 008°23'4912.0
2017-May-27 13:23N 57°45' E 009°37'511.7
2017-May-27 12:56N 57°48' E 009°45'511.4
2017-May-27 12:30N 57°50' E 009°53'611.4
2017-May-27 11:59N 57°53' E 010°03'611.5
2017-May-27 11:26N 57°56' E 010°13'511.4
2017-May-27 10:59N 57°59' E 010°21'611.4
2017-May-27 10:29N 58°02' E 010°30'611.5
2017-May-27 09:59N 58°05' E 010°40'611.8
2017-May-27 09:30N 58°08' E 010°49'611.8
2017-May-27 08:59N 58°11' E 010°59'611.8
2017-May-27 08:27N 58°14' E 011°09'510.7
2017-May-27 08:00N 58°17' E 011°17'611.6
2017-May-27 07:30N 58°21' E 011°24'1 0.0
2017-May-25 11:04N 58°21' E 011°26'0 1.1
2017-May-25 11:00N 58°21' E 011°26'2 4.7
2017-May-25 10:30N 58°20' E 011°23'713.5
2017-May-25 10:00N 58°15' E 011°13'3 5.8
2017-May-25 09:30N 58°13' E 011°10'1 2.5
2017-May-25 08:59N 58°12' E 011°10'0 0.8
2017-May-25 08:30N 58°12' E 011°11'0 0.2
2017-May-25 08:00N 58°12' E 011°11'0 0.2
2017-May-25 07:30N 58°12' E 011°11'2 4.8
2017-May-25 07:00N 58°09' E 011°12'713.9
2017-May-25 06:30N 58°02' E 011°14'612.7
2017-May-25 06:00N 57°56' E 011°17'612.0
2017-May-25 05:30N 57°50' E 011°20'611.4
2017-May-25 04:59N 57°44' E 011°21'611.4
2017-May-25 04:30N 57°39' E 011°22'610.9
2017-May-25 03:59N 57°33' E 011°25'510.7
2017-May-25 03:30N 57°29' E 011°28'510.8
2017-May-25 03:00N 57°24' E 011°31'611.4
2017-May-25 02:30N 57°18' E 011°34'612.2
2017-May-25 01:59N 57°12' E 011°37'812.5
2017-May-25 01:19N 57°04' E 011°42'512.3
2017-May-25 00:56N 56°60' E 011°45'712.0
2017-May-25 00:21N 56°53' E 011°50'4511.4
2017-May-24 20:26N 56°12' E 012°21'512.0
2017-May-24 20:00N 56°10' E 012°29'612.5
2017-May-24 19:30N 56°05' E 012°37'611.5
2017-May-24 19:00N 55°60' E 012°41'611.8
2017-May-24 18:31N 55°54' E 012°45'612.2
2017-May-24 18:00N 55°48' E 012°47'612.9
2017-May-24 17:30N 55°43' E 012°53'510.4
2017-May-24 17:00N 55°38' E 012°56'611.5
2017-May-24 16:30N 55°34' E 012°48'510.2
2017-May-24 16:00N 55°29' E 012°43'510.1
2017-May-24 15:30N 55°25' E 012°42'612.0
2017-May-24 15:00N 55°18' E 012°41'612.6
2017-May-24 14:30N 55°16' E 012°51'2612.6
2017-May-24 12:25N 55°14' E 013°37'612.6
2017-May-24 11:57N 55°14' E 013°47'612.6
2017-May-24 11:30N 55°14' E 013°57'612.6
2017-May-24 11:00N 55°14' E 014°08'611.7
2017-May-24 10:29N 55°15' E 014°19'613.0
2017-May-24 10:00N 55°20' E 014°25'712.7
2017-May-24 09:29N 55°25' E 014°32'612.5
2017-May-24 09:00N 55°29' E 014°42'612.5
2017-May-24 08:30N 55°32' E 014°51'612.6
2017-May-24 08:00N 55°35' E 015°01'612.8
2017-May-24 07:30N 55°38' E 015°10'612.9
2017-May-24 07:00N 55°41' E 015°20'713.4
2017-May-24 06:30N 55°45' E 015°31'714.1
2017-May-24 06:00N 55°48' E 015°41'713.2
2017-May-24 05:30N 55°52' E 015°51'713.1
2017-May-24 05:00N 55°55' E 016°02'613.0
2017-May-24 04:30N 55°58' E 016°12'713.0
2017-May-24 04:00N 56°01' E 016°22'612.8
2017-May-24 03:30N 56°04' E 016°32'612.7
2017-May-24 03:00N 56°08' E 016°41'612.3
2017-May-24 02:30N 56°13' E 016°47'612.7
2017-May-24 02:00N 56°19' E 016°51'612.6
2017-May-24 01:30N 56°25' E 016°55'612.7
2017-May-24 01:00N 56°31' E 016°59'612.7
2017-May-24 00:30N 56°37' E 017°04'712.6
2017-May-23 23:59N 56°43' E 017°08'612.6
2017-May-23 23:30N 56°49' E 017°12'612.5
2017-May-23 23:00N 56°54' E 017°16'612.7
2017-May-23 22:30N 57°00' E 017°20'712.8
2017-May-23 21:59N 57°07' E 017°24'13712.5
2017-May-23 11:03N 59°12' E 019°08'112.7
2017-May-23 11:00N 59°13' E 019°07'47 1.1
2017-May-21 15:14N 59°59' E 019°20'312.6
2017-May-21 15:00N 60°01' E 019°16'712.8
2017-May-21 14:29N 60°06' E 019°08'1212.2
2017-May-21 13:30N 60°18' E 019°00'612.7
2017-May-21 13:00N 60°24' E 018°60'811.6
2017-May-21 12:19N 60°31' E 018°53'412.8
2017-May-21 12:00N 60°33' E 018°46'7 0.2
2017-May-20 04:40N 60°38' E 018°35'311.8
2017-May-20 04:23N 60°36' E 018°41'611.9
2017-May-20 03:51N 60°33' E 018°52'411.9
2017-May-20 03:28N 60°30' E 018°59'711.1
2017-May-20 02:51N 60°24' E 019°01'411.7
2017-May-20 02:29N 60°19' E 019°00'611.6
2017-May-20 02:00N 60°14' E 019°03'611.7
2017-May-20 01:30N 60°09' E 019°10'612.0
2017-May-20 01:00N 60°04' E 019°17'612.1
2017-May-20 00:30N 59°60' E 019°25'1312.3
2017-May-19 23:28N 59°50' E 019°41'20811.6
2017-May-19 05:33N 56°38' E 017°12'112.5
2017-May-19 05:29N 56°37' E 017°11'912.5
2017-May-19 04:49N 56°29' E 017°06'412.5
2017-May-19 04:29N 56°25' E 017°03'612.5
2017-May-19 04:00N 56°19' E 016°59'612.5
2017-May-19 03:30N 56°14' E 016°55'612.6
2017-May-19 03:00N 56°08' E 016°51'612.0
2017-May-19 02:30N 56°03' E 016°44'612.5
2017-May-19 02:00N 55°60' E 016°35'612.4
2017-May-19 01:30N 55°57' E 016°25'612.5
2017-May-19 01:00N 55°54' E 016°16'612.2
2017-May-19 00:31N 55°51' E 016°06'612.1
2017-May-19 00:00N 55°48' E 015°57'612.1
2017-May-18 23:30N 55°45' E 015°47'612.1
2017-May-18 23:00N 55°42' E 015°38'612.1
2017-May-18 22:30N 55°39' E 015°29'612.2
2017-May-18 22:01N 55°36' E 015°19'612.3
2017-May-18 21:31N 55°33' E 015°09'612.2
2017-May-18 20:59N 55°30' E 014°59'612.1
2017-May-18 20:29N 55°27' E 014°50'611.9
2017-May-18 19:59N 55°24' E 014°41'612.0
2017-May-18 19:31N 55°20' E 014°34'612.1
2017-May-18 19:00N 55°15' E 014°27'612.2
2017-May-18 18:30N 55°10' E 014°21'612.5
2017-May-18 17:59N 55°05' E 014°13'  

Dump ship's entire track history